Time;durP1;ratioP1;P1;durP2;ratioP2;P2;SDS_P1;SDS_P2;PMS_P1;PMS_P2;Temp;Humidity;BMP_temperature;BMP_pressure;BME280_temperature;BME280_humidity;BME280_pressure;Samples;Min_cycle;Max_cycle;Signal;HPM_P1;HPM_P2
2023/08/22 00:29:43;;;;;;;11.15;7.75;;;;;;;23.18;72.18;98516.78;5076503;28;20128;-82
2023/08/22 00:33:21;;;;;;;8.57;7.28;;;;;;;23.15;72.50;98520.16;5057035;28;20056;-86
2023/08/22 00:52:19;;;;;;;12.68;7.57;;;;;;;22.78;71.91;98468.47;4960304;28;20784;-85
2023/08/22 00:54:48;;;;;;;15.48;8.15;;;;;;;23.11;71.98;98508.19;4954648;28;20042;-84
2023/08/22 00:58:10;;;;;;;11.02;7.57;;;;;;;23.05;71.82;98514.16;4958846;28;20029;-85
2023/08/22 01:02:14;;;;;;;10.40;7.57;;;;;;;23.19;71.64;98521.16;4903018;29;20072;-85
2023/08/22 01:05:12;;;;;;;9.40;7.50;;;;;;;22.88;71.68;98481.09;4958369;28;20037;-84
2023/08/22 01:08:14;;;;;;;14.32;7.55;;;;;;;23.17;71.60;98519.84;5051078;28;20045;-81
2023/08/22 01:10:55;;;;;;;12.57;7.68;;;;;;;22.60;72.36;98426.41;4979784;28;20085;-83
2023/08/22 01:13:49;;;;;;;10.68;7.72;;;;;;;23.14;71.99;98520.47;5003337;28;20070;-82
2023/08/22 01:16:21;;;;;;;11.55;7.80;;;;;;;23.18;72.16;98514.03;4986370;28;20033;-84
2023/08/22 01:18:48;;;;;;;11.68;8.77;;;;;;;23.11;71.66;98508.19;4997245;28;20035;-82
2023/08/22 01:26:17;;;;;;;11.75;8.20;;;;;;;22.89;72.48;98516.53;4958964;28;20105;-82
2023/08/22 01:29:27;;;;;;;10.32;8.27;;;;;;;22.69;72.98;98492.34;4976234;28;20269;-86
2023/08/22 01:31:58;;;;;;;11.30;8.43;;;;;;;22.81;73.24;98503.53;4958464;28;20137;-81
2023/08/22 01:34:29;;;;;;;9.57;7.30;;;;;;;22.81;73.45;98509.03;4976785;28;20073;-83
2023/08/22 01:36:55;;;;;;;14.68;7.68;;;;;;;22.71;73.31;98489.28;5005004;28;20052;-80
2023/08/22 01:39:22;;;;;;;12.40;7.43;;;;;;;22.89;73.29;98516.53;5018495;28;20024;-82
2023/08/22 01:41:49;;;;;;;12.07;8.40;;;;;;;22.63;73.43;98486.19;5028447;28;20522;-83
2023/08/22 01:44:15;;;;;;;15.00;8.63;;;;;;;22.33;73.32;98453.19;5020708;28;20033;-83
2023/08/22 01:46:40;;;;;;;10.20;8.55;;;;;;;22.27;73.86;98446.22;5032705;28;20041;-82
2023/08/22 01:49:06;;;;;;;13.77;9.10;;;;;;;21.99;74.26;98434.56;5027662;28;20016;-84
2023/08/22 01:51:37;;;;;;;12.02;9.25;;;;;;;21.89;74.91;98430.16;5023108;28;20152;-84
2023/08/22 01:59:38;;;;;;;9.68;8.07;;;;;;;21.90;74.89;98420.00;5072765;22;20049;-83
2023/08/22 02:02:59;;;;;;;11.90;7.68;;;;;;;21.90;74.53;98423.56;5007382;28;20044;-84
2023/08/22 03:09:14;;;;;;;10.85;9.35;;;;;;;20.97;77.69;98407.03;4946512;28;20040;-83
2023/08/22 03:11:58;;;;;;;13.10;9.63;;;;;;;20.97;77.51;98383.22;4944267;28;20100;-82
2023/08/22 03:14:25;;;;;;;13.57;8.02;;;;;;;21.54;77.83;98474.03;4961161;28;20563;-83
2023/08/22 03:16:59;;;;;;;11.27;9.20;;;;;;;21.26;77.38;98423.97;4945716;28;20030;-83
2023/08/22 03:31:03;;;;;;;10.63;8.30;;;;;;;20.91;77.98;98391.84;4947178;28;20567;-80
2023/08/22 03:33:32;;;;;;;12.20;8.45;;;;;;;21.08;77.63;98403.00;4966740;28;20038;-81
2023/08/22 03:36:04;;;;;;;15.25;9.00;;;;;;;21.16;77.74;98413.22;4967359;28;20026;-83
2023/08/22 03:38:32;;;;;;;14.35;8.73;;;;;;;20.99;77.55;98383.72;4951000;28;20495;-81
2023/08/22 03:45:04;;;;;;;10.70;8.80;;;;;;;21.51;77.77;98458.19;5070917;22;20076;-81
2023/08/22 03:51:44;;;;;;;14.77;9.07;;;;;;;21.25;77.70;98422.34;4943012;28;20542;-82
2023/08/22 03:54:37;;;;;;;10.10;8.73;;;;;;;21.49;77.45;98450.31;4967678;28;20045;-82
2023/08/22 03:57:24;;;;;;;10.00;8.55;;;;;;;21.34;77.82;98425.97;4963977;28;20042;-82
2023/08/22 04:00:11;;;;;;;14.70;9.23;;;;;;;20.90;77.43;98360.09;4978244;28;20066;-83
2023/08/22 04:03:03;;;;;;;10.82;9.25;;;;;;;21.04;77.67;98385.53;4959302;28;20027;-84
2023/08/22 04:06:53;;;;;;;;;;;;;;;;;;;;;
2023/08/22 04:09:32;;;;;;;18.95;9.93;;;;;;;21.50;77.98;98479.31;4952726;28;20074;-82
2023/08/22 04:11:58;;;;;;;12.45;9.05;;;;;;;21.48;77.59;98475.25;4969111;28;20162;-84
2023/08/22 04:14:24;;;;;;;11.05;8.75;;;;;;;21.57;77.33;98498.06;4980215;28;20027;-81
2023/08/22 04:16:49;;;;;;;12.30;9.98;;;;;;;21.46;77.87;98467.34;4981956;28;20105;-80
2023/08/22 04:19:15;;;;;;;10.18;8.63;;;;;;;21.60;77.69;98492.78;4981679;28;20022;-83
2023/08/22 04:21:42;;;;;;;10.93;9.05;;;;;;;21.63;77.86;98486.72;4968063;28;20035;-80
2023/08/22 04:24:09;;;;;;;12.43;8.43;;;;;;;21.67;77.65;98495.13;4992234;28;20030;-83
2023/08/22 04:26:34;;;;;;;12.32;9.50;;;;;;;21.64;77.66;98495.72;4968423;28;20031;-84
2023/08/22 04:29:04;;;;;;;10.30;8.75;;;;;;;21.45;77.65;98460.22;4962663;28;20121;-83
2023/08/22 04:31:30;;;;;;;13.57;10.63;;;;;;;21.67;77.43;98501.41;4947962;28;20030;-82
2023/08/22 04:34:07;;;;;;;11.25;9.23;;;;;;;21.46;77.42;98464.63;4949922;28;20547;-83
2023/08/22 04:36:38;;;;;;;11.02;9.27;;;;;;;21.21;77.45;98426.81;4966507;28;20030;-82
2023/08/22 04:39:11;;;;;;;14.00;9.75;;;;;;;21.09;77.96;98404.63;4970715;28;20053;-80
2023/08/22 04:42:52;;;;;;;12.15;8.95;;;;;;;21.65;77.94;98492.69;4923358;29;20044;-82
2023/08/22 04:45:26;;;;;;;12.65;9.15;;;;;;;21.68;77.85;98486.56;4945009;28;20054;-83
2023/08/22 04:47:52;;;;;;;13.27;9.75;;;;;;;21.67;77.92;98484.16;4966309;28;20129;-81
2023/08/22 04:50:17;;;;;;;12.90;9.90;;;;;;;21.74;78.20;98496.31;4972922;28;20073;-81
2023/08/22 04:52:43;;;;;;;16.00;9.73;;;;;;;21.71;78.57;98483.22;4957435;28;20322;-81
2023/08/22 04:55:09;;;;;;;13.40;10.07;;;;;;;21.67;78.16;98465.78;4947955;28;20019;-77
2023/08/22 04:57:34;;;;;;;14.88;10.63;;;;;;;21.73;78.46;98475.50;4963817;28;20058;-78
2023/08/22 04:59:59;;;;;;;11.20;9.23;;;;;;;21.86;78.47;98493.88;4986682;28;20389;-78
2023/08/22 05:02:26;;;;;;;12.50;8.82;;;;;;;21.91;78.32;98496.47;4969751;28;20401;-78
2023/08/22 05:04:52;;;;;;;11.48;10.00;;;;;;;21.76;78.81;98493.25;4956779;28;20026;-78
2023/08/22 05:07:18;;;;;;;11.60;10.40;;;;;;;21.75;78.67;98495.19;4983377;28;20062;-77
2023/08/22 05:09:43;;;;;;;13.68;9.82;;;;;;;21.76;78.35;98494.06;4976775;28;20026;-77
2023/08/22 05:12:09;;;;;;;12.82;10.18;;;;;;;21.86;78.72;98499.34;4979576;28;20519;-78
2023/08/22 05:14:35;;;;;;;12.30;9.68;;;;;;;21.79;78.46;98481.69;4969258;28;20027;-77
2023/08/22 05:17:00;;;;;;;12.25;9.07;;;;;;;21.92;78.42;98497.28;4970074;28;20100;-77
2023/08/22 05:19:26;;;;;;;15.90;9.52;;;;;;;21.99;78.66;98503.97;4976005;28;20022;-77
2023/08/22 05:21:52;;;;;;;11.32;9.20;;;;;;;22.06;78.32;98494.47;4962919;28;20058;-78
2023/08/22 05:24:17;;;;;;;10.60;9.35;;;;;;;22.09;78.01;98502.09;4968983;28;20030;-77
2023/08/22 05:26:43;;;;;;;11.57;9.38;;;;;;;22.04;78.05;98489.31;4985641;28;20063;-79
2023/08/22 05:29:09;;;;;;;11.15;8.98;;;;;;;22.15;77.48;98484.41;4963325;28;20029;-77
2023/08/22 05:31:35;;;;;;;14.98;8.95;;;;;;;22.33;77.41;98508.09;4972653;28;20039;-77
2023/08/22 05:34:00;;;;;;;13.20;8.75;;;;;;;22.39;77.38;98510.38;4975226;28;20062;-77
2023/08/22 05:36:26;;;;;;;14.48;10.25;;;;;;;22.19;78.09;98488.13;4946645;28;20082;-77
2023/08/22 05:38:51;;;;;;;13.65;9.85;;;;;;;22.26;77.85;98491.25;4964717;28;20126;-77
2023/08/22 05:41:17;;;;;;;11.15;9.27;;;;;;;22.39;77.89;98490.34;4973018;28;20505;-78
2023/08/22 05:43:42;;;;;;;11.98;9.95;;;;;;;22.51;78.05;98493.34;4976761;28;20344;-77
2023/08/22 05:46:08;;;;;;;12.60;9.77;;;;;;;22.58;77.64;98488.22;4975304;28;20037;-77
2023/08/22 05:48:33;;;;;;;13.48;10.00;;;;;;;22.62;78.06;98491.97;4968759;28;20030;-77
2023/08/22 05:51:01;;;;;;;14.30;10.75;;;;;;;22.75;78.47;98499.31;4969152;28;20033;-77
2023/08/22 05:53:27;;;;;;;17.75;10.65;;;;;;;22.56;79.41;98493.22;4962733;28;20030;-78
2023/08/22 05:55:52;;;;;;;17.23;11.80;;;;;;;22.50;80.28;98483.47;4978661;28;20512;-77
2023/08/22 05:58:18;;;;;;;14.65;11.63;;;;;;;22.53;79.80;98491.91;4969215;28;20030;-79
2023/08/22 06:00:43;;;;;;;19.02;11.45;;;;;;;22.63;79.85;98501.84;4952859;28;20146;-78
2023/08/22 06:03:09;;;;;;;19.33;14.23;;;;;;;22.55;79.78;98491.59;4962604;28;20518;-78
2023/08/22 06:05:35;;;;;;;16.38;13.00;;;;;;;22.53;80.06;98507.56;4946117;28;20042;-78
2023/08/22 06:08:00;;;;;;;15.15;12.90;;;;;;;22.52;80.28;98486.75;4958773;28;20085;-78
2023/08/22 06:10:25;;;;;;;13.50;11.48;;;;;;;22.77;79.54;98502.56;4983188;28;20061;-78
2023/08/22 06:12:51;;;;;;;12.63;11.27;;;;;;;22.93;79.54;98506.50;4962160;28;20050;-79
2023/08/22 06:15:17;;;;;;;13.00;11.07;;;;;;;23.05;79.37;98503.16;4975557;28;20030;-76
2023/08/22 06:17:42;;;;;;;15.13;11.25;;;;;;;23.14;79.46;98506.75;4960415;28;20547;-77
2023/08/22 06:20:08;;;;;;;13.68;10.95;;;;;;;23.17;79.39;98495.13;4972487;28;20086;-77
2023/08/22 06:22:33;;;;;;;14.85;10.60;;;;;;;23.22;78.74;98492.22;4991073;28;20100;-78
2023/08/22 06:27:37;;;;;;;14.82;11.60;;;;;;;23.75;77.49;98494.78;5109419;27;20218;-70
2023/08/22 06:30:05;;;;;;;12.63;11.18;;;;;;;23.95;76.50;98496.88;5107587;28;20523;-71
2023/08/22 06:32:36;;;;;;;13.27;11.05;;;;;;;24.00;75.45;98485.69;5093018;28;20024;-71
2023/08/22 06:35:01;;;;;;;16.10;11.07;;;;;;;24.15;74.82;98488.00;5074668;28;20111;-70
2023/08/22 06:37:27;;;;;;;13.80;11.77;;;;;;;24.26;74.12;98485.72;5050132;28;20486;-70
2023/08/22 06:39:53;;;;;;;14.10;11.48;;;;;;;24.46;73.63;98510.59;5050298;28;20036;-70
2023/08/22 06:42:18;;;;;;;15.18;11.32;;;;;;;24.55;73.59;98485.81;5070227;28;20127;-70
2023/08/22 06:44:48;;;;;;;13.80;11.43;;;;;;;24.81;73.42;98494.03;5078500;28;20525;-70
2023/08/22 06:47:13;;;;;;;16.88;11.35;;;;;;;24.87;72.70;98476.16;5066573;28;20052;-70
2023/08/22 06:49:40;;;;;;;15.13;11.73;;;;;;;25.04;72.50;98492.63;5049969;28;20054;-70
2023/08/22 06:52:06;;;;;;;13.57;11.32;;;;;;;25.12;72.00;98489.00;5050076;28;20033;-69
2023/08/22 06:54:32;;;;;;;14.95;11.30;;;;;;;25.15;71.41;98488.38;5066308;28;20068;-70
2023/08/22 06:56:57;;;;;;;16.05;12.40;;;;;;;25.13;71.69;98485.13;5066689;28;20051;-71
2023/08/22 06:59:23;;;;;;;14.80;11.85;;;;;;;25.23;71.77;98496.56;5066337;28;20021;-71
2023/08/22 07:01:48;;;;;;;15.07;12.65;;;;;;;25.28;71.85;98487.31;5067246;28;20103;-70
2023/08/22 07:04:13;;;;;;;15.30;12.20;;;;;;;25.38;72.00;98492.44;5066051;28;20497;-70
2023/08/22 07:06:39;;;;;;;15.70;12.02;;;;;;;25.40;71.32;98481.88;5049798;28;20124;-69
2023/08/22 07:09:04;;;;;;;14.07;11.07;;;;;;;25.59;70.85;98498.84;5067704;28;20107;-70
2023/08/22 07:11:30;;;;;;;14.90;11.73;;;;;;;25.57;70.98;98484.56;5066539;28;20036;-70
2023/08/22 07:13:55;;;;;;;14.82;12.20;;;;;;;25.66;70.85;98493.59;5066027;28;20028;-72
2023/08/22 07:16:21;;;;;;;14.27;12.77;;;;;;;25.73;70.85;98502.16;5067276;28;20028;-71
2023/08/22 07:18:46;;;;;;;14.43;12.50;;;;;;;25.67;70.59;98486.91;5067648;28;20024;-71
2023/08/22 07:21:11;;;;;;;14.65;12.95;;;;;;;25.77;70.83;98500.31;5049704;28;20494;-74
2023/08/22 07:23:37;;;;;;;15.60;13.00;;;;;;;25.79;70.92;98500.78;5049259;28;20025;-70
2023/08/22 07:26:03;;;;;;;14.25;12.40;;;;;;;25.87;70.52;98490.84;5067318;28;20025;-71
2023/08/22 07:28:28;;;;;;;16.88;12.93;;;;;;;25.89;69.96;98486.59;5067100;28;20435;-70
2023/08/22 07:30:53;;;;;;;16.33;12.27;;;;;;;26.01;69.04;98489.44;5049303;28;20028;-72
2023/08/22 07:33:19;;;;;;;13.82;11.63;;;;;;;26.25;69.04;98504.50;5048969;28;20111;-71
2023/08/22 07:35:45;;;;;;;13.18;11.60;;;;;;;26.37;68.87;98497.06;5066825;28;20025;-72
2023/08/22 07:38:10;;;;;;;16.85;12.38;;;;;;;26.57;68.16;98506.47;5040298;28;20031;-71
2023/08/22 07:40:40;;;;;;;14.60;11.45;;;;;;;26.72;68.10;98503.06;5053798;28;20056;-72
2023/08/22 07:43:06;;;;;;;14.35;11.93;;;;;;;26.66;67.28;98485.06;5052003;28;20033;-71
2023/08/22 07:45:31;;;;;;;15.35;12.18;;;;;;;26.95;67.33;98509.81;5052260;28;20028;-71
2023/08/22 07:47:56;;;;;;;14.35;11.15;;;;;;;27.01;67.15;98500.13;5052486;28;20045;-70
2023/08/22 07:50:22;;;;;;;13.43;12.07;;;;;;;27.08;66.52;98505.06;5052414;28;20074;-71
2023/08/22 07:52:48;;;;;;;13.82;12.43;;;;;;;27.04;66.61;98495.88;5035506;28;20487;-71
2023/08/22 07:55:13;;;;;;;15.68;12.43;;;;;;;27.05;66.68;98489.97;5052198;28;20064;-70
2023/08/22 07:57:39;;;;;;;16.20;12.18;;;;;;;27.33;66.19;98506.69;5053407;28;20123;-70
2023/08/22 08:00:11;;;;;;;17.67;12.85;;;;;;;27.38;65.43;98504.53;5052334;28;20091;-71
2023/08/22 08:02:39;;;;;;;14.05;12.55;;;;;;;27.42;65.21;98498.31;5052383;28;20057;-71
2023/08/22 08:05:05;;;;;;;14.73;12.88;;;;;;;27.36;64.05;98506.81;5051974;28;20499;-71
2023/08/22 08:07:30;;;;;;;20.08;11.93;;;;;;;27.39;63.92;98511.69;5053145;28;20112;-71
2023/08/22 08:09:55;;;;;;;13.93;11.02;;;;;;;27.42;64.01;98505.44;5035568;28;20394;-71
2023/08/22 08:12:21;;;;;;;14.18;10.40;;;;;;;27.60;63.59;98505.22;5051942;28;20037;-72
2023/08/22 08:14:46;;;;;;;12.75;9.73;;;;;;;27.59;62.81;98493.31;5052831;28;20096;-71
2023/08/22 08:17:12;;;;;;;13.55;10.15;;;;;;;27.67;62.44;98499.91;5053252;28;20099;-72
2023/08/22 08:19:37;;;;;;;14.70;10.68;;;;;;;27.82;62.03;98488.13;5053031;28;20029;-71
2023/08/22 08:22:02;;;;;;;11.45;10.25;;;;;;;27.95;62.27;98498.78;5053016;28;20118;-72
2023/08/22 08:24:28;;;;;;;11.95;10.70;;;;;;;28.05;63.19;98500.31;5052735;28;20029;-71
2023/08/22 08:26:53;;;;;;;11.15;9.93;;;;;;;28.18;61.98;98498.28;5052729;28;20037;-72
2023/08/22 08:29:18;;;;;;;11.07;9.90;;;;;;;28.24;61.87;98492.13;5052860;28;20053;-72
2023/08/22 08:31:44;;;;;;;12.07;9.48;;;;;;;28.30;61.84;98496.28;5051549;28;20029;-71
2023/08/22 08:34:09;;;;;;;10.70;8.63;;;;;;;28.30;60.48;98501.81;5034737;28;20021;-72
2023/08/22 08:36:35;;;;;;;8.90;7.65;;;;;;;28.30;59.42;98496.28;5051453;28;20032;-72
2023/08/22 08:39:00;;;;;;;10.88;8.95;;;;;;;28.32;60.39;98499.50;5018422;28;20505;-71
2023/08/22 08:41:26;;;;;;;11.13;9.88;;;;;;;28.28;60.95;98498.59;5051360;28;20041;-72
2023/08/22 08:43:52;;;;;;;10.82;8.48;;;;;;;28.12;59.61;98503.28;5051031;28;20487;-72
2023/08/22 08:46:17;;;;;;;9.73;8.23;;;;;;;28.32;59.41;98493.94;5051288;28;20064;-72
2023/08/22 08:48:43;;;;;;;10.57;8.27;;;;;;;28.36;59.21;98489.31;5050702;28;20024;-71
2023/08/22 08:51:09;;;;;;;10.88;8.20;;;;;;;28.32;58.84;98482.88;5034069;28;20045;-71
2023/08/22 08:53:37;;;;;;;10.65;8.38;;;;;;;28.37;58.10;98485.38;5050896;28;20027;-72
2023/08/22 08:56:04;;;;;;;10.50;8.30;;;;;;;28.34;57.96;98491.63;5051148;28;20037;-72
2023/08/22 08:58:29;;;;;;;18.73;9.32;;;;;;;28.43;58.01;98497.81;5051093;28;20043;-72
2023/08/22 09:00:56;;;;;;;11.52;8.95;;;;;;;28.53;57.69;98500.09;5051020;28;20112;-72
2023/08/22 09:03:21;;;;;;;9.25;8.05;;;;;;;28.53;58.85;98502.84;5050857;28;20025;-71
2023/08/22 09:05:47;;;;;;;10.70;7.70;;;;;;;28.46;58.18;98483.25;5050684;28;20052;-70
2023/08/22 09:08:19;;;;;;;10.60;7.70;;;;;;;28.66;57.73;98492.50;5059192;28;20082;-71
2023/08/22 09:10:50;;;;;;;9.05;7.95;;;;;;;28.83;57.36;98492.19;5055152;28;20052;-72
2023/08/22 09:13:29;;;;;;;11.68;8.02;;;;;;;28.87;57.19;98493.06;5044525;28;20454;-71
2023/08/22 09:15:59;;;;;;;8.60;7.15;;;;;;;28.91;57.44;98487.63;5040804;28;20482;-71
2023/08/22 09:18:25;;;;;;;11.00;7.60;;;;;;;28.92;56.83;98489.22;5042074;28;20123;-71
2023/08/22 09:20:51;;;;;;;12.45;6.38;;;;;;;28.89;56.13;98479.69;5064049;28;20459;-71
2023/08/22 09:23:29;;;;;;;11.32;6.30;;;;;;;29.02;55.56;98478.41;5062670;28;20119;-70
2023/08/22 09:25:55;;;;;;;7.25;6.40;;;;;;;29.19;54.87;98488.38;5044580;28;20486;-71
2023/08/22 09:28:20;;;;;;;7.50;5.97;;;;;;;29.13;54.88;98478.66;5057035;28;20104;-71
2023/08/22 09:30:48;;;;;;;8.07;6.03;;;;;;;29.31;54.75;98497.38;5063422;28;20033;-71
2023/08/22 09:33:13;;;;;;;10.30;6.78;;;;;;;29.33;54.65;98497.06;5051025;28;20021;-71
2023/08/22 09:35:38;;;;;;;8.25;6.75;;;;;;;29.07;54.60;98486.47;5046756;28;20071;-71
2023/08/22 09:38:08;;;;;;;9.32;6.97;;;;;;;29.21;55.42;98488.81;5065084;28;20052;-72
2023/08/22 09:40:34;;;;;;;11.07;8.00;;;;;;;29.26;54.93;98488.56;5058095;28;20555;-71
2023/08/22 09:43:01;;;;;;;12.80;7.45;;;;;;;29.41;55.11;98488.53;5056697;28;20017;-72
2023/08/22 09:45:28;;;;;;;8.27;5.45;;;;;;;29.47;54.15;98491.03;5062715;28;20052;-72
2023/08/22 09:47:56;;;;;;;7.65;5.28;;;;;;;29.37;53.03;98481.28;5064896;28;20054;-71
2023/08/22 09:50:28;;;;;;;5.85;5.32;;;;;;;29.53;52.27;98481.25;5059109;28;20037;-72
2023/08/22 09:52:55;;;;;;;5.32;4.75;;;;;;;29.64;52.95;98479.53;5056242;28;20035;-71
2023/08/22 09:55:20;;;;;;;8.07;4.80;;;;;;;29.70;53.30;98481.66;5051293;28;20032;-72
2023/08/22 09:57:47;;;;;;;5.10;4.60;;;;;;;29.56;51.50;98486.88;5064644;28;20376;-71
2023/08/22 10:00:13;;;;;;;5.63;4.95;;;;;;;29.49;51.45;98478.41;5049874;28;20021;-72
2023/08/22 10:02:39;;;;;;;5.75;4.20;;;;;;;29.46;50.88;98448.56;5047040;28;20501;-71
2023/08/22 10:05:05;;;;;;;6.18;4.32;;;;;;;29.65;51.31;98479.16;5050015;28;20550;-72
2023/08/22 10:07:30;;;;;;;4.90;4.30;;;;;;;29.70;51.08;98464.19;5064433;28;20036;-71
2023/08/22 10:09:55;;;;;;;6.63;4.20;;;;;;;29.88;49.58;98477.31;5049948;28;20028;-72
2023/08/22 10:12:21;;;;;;;5.03;4.18;;;;;;;29.80;50.64;98461.66;5051788;28;20033;-72
2023/08/22 10:14:50;;;;;;;6.55;4.47;;;;;;;30.04;50.32;98475.28;5044248;28;20115;-71
2023/08/22 10:17:15;;;;;;;5.78;4.30;;;;;;;29.92;52.50;98482.97;5049866;28;20479;-72
2023/08/22 10:19:42;;;;;;;6.93;4.35;;;;;;;29.94;51.63;98475.84;5058559;28;20074;-72
2023/08/22 10:22:09;;;;;;;5.80;4.20;;;;;;;30.13;50.93;98471.50;5054317;28;20033;-72
2023/08/22 10:24:35;;;;;;;5.50;4.47;;;;;;;30.31;50.36;98472.63;5050835;28;20025;-71
2023/08/22 10:27:09;;;;;;;8.10;5.38;;;;;;;30.46;50.74;98469.78;5050068;28;20551;-71
2023/08/22 10:29:41;;;;;;;5.43;4.72;;;;;;;30.55;51.71;98466.78;5061155;28;20028;-71
2023/08/22 10:32:06;;;;;;;7.97;5.05;;;;;;;30.51;50.24;98468.69;5056405;28;20062;-72
2023/08/22 10:34:38;;;;;;;10.60;5.67;;;;;;;30.56;51.58;98473.94;5059656;28;20032;-71
2023/08/22 10:37:25;;;;;;;7.70;5.68;;;;;;;30.42;51.98;98460.59;5050886;28;20313;-71
2023/08/22 10:39:50;;;;;;;7.75;5.53;;;;;;;30.68;50.97;98459.88;5064170;28;20509;-71
2023/08/22 10:42:20;;;;;;;6.43;5.68;;;;;;;30.67;50.47;98466.59;5057659;28;20021;-72
2023/08/22 10:44:56;;;;;;;5.95;5.32;;;;;;;30.85;50.57;98453.81;5055912;28;20041;-72
2023/08/22 10:47:26;;;;;;;8.55;5.13;;;;;;;30.98;51.60;98457.22;5061077;28;20036;-72
2023/08/22 10:49:56;;;;;;;5.80;4.97;;;;;;;30.85;50.41;98464.97;5046274;28;20036;-71
2023/08/22 10:52:38;;;;;;;8.57;6.03;;;;;;;30.91;49.98;98455.16;5060521;28;20085;-71
2023/08/22 10:55:08;;;;;;;5.13;4.65;;;;;;;30.87;49.79;98457.03;5039817;28;20044;-72
2023/08/22 10:57:36;;;;;;;6.22;4.65;;;;;;;30.95;50.49;98458.78;5055680;28;20128;-71
2023/08/22 11:00:14;;;;;;;5.50;4.88;;;;;;;30.94;50.00;98457.19;5056802;28;20069;-71
2023/08/22 11:02:40;;;;;;;7.18;5.03;;;;;;;31.03;49.30;98443.81;5056232;28;20044;-71
2023/08/22 11:05:13;;;;;;;8.63;5.03;;;;;;;31.07;48.28;98450.25;5043176;28;20017;-72
2023/08/22 11:07:40;;;;;;;7.90;4.70;;;;;;;31.07;49.22;98461.38;5062825;28;20033;-72
2023/08/22 11:10:07;;;;;;;5.60;4.60;;;;;;;31.19;48.25;98458.41;5059163;28;20475;-71
2023/08/22 11:12:33;;;;;;;6.75;4.30;;;;;;;31.35;47.22;98450.69;5056838;28;20029;-72
2023/08/22 11:14:58;;;;;;;7.65;4.32;;;;;;;31.36;47.56;98443.97;5036312;28;20024;-72
2023/08/22 11:17:24;;;;;;;5.90;4.78;;;;;;;31.51;48.21;98452.56;5036230;28;20039;-71
2023/08/22 11:19:52;;;;;;;6.90;4.43;;;;;;;31.56;47.50;98458.56;5046348;28;20021;-71
2023/08/22 11:22:17;;;;;;;9.77;4.20;;;;;;;31.56;47.58;98460.56;5055841;28;20507;-72
2023/08/22 11:24:44;;;;;;;7.35;4.97;;;;;;;31.63;46.85;98455.91;5052297;28;20036;-72
2023/08/22 11:27:09;;;;;;;5.50;4.53;;;;;;;31.81;46.66;98439.44;5056127;28;20474;-72
2023/08/22 11:29:46;;;;;;;5.07;4.43;;;;;;;31.86;46.21;98458.59;5063983;28;20048;-71
2023/08/22 11:32:22;;;;;;;4.60;4.20;;;;;;;31.90;46.17;98465.03;5049861;28;20471;-71
2023/08/22 11:35:08;;;;;;;4.40;3.97;;;;;;;31.30;46.57;98453.78;5065715;28;20040;-71
2023/08/22 11:37:38;;;;;;;7.80;4.43;;;;;;;31.53;46.48;98444.63;5067548;28;20028;-72
2023/08/22 11:40:05;;;;;;;6.80;4.25;;;;;;;31.73;46.61;98454.44;5042993;28;20449;-72
2023/08/22 11:42:34;;;;;;;8.25;4.15;;;;;;;31.79;45.82;98464.06;5038064;28;20075;-72
2023/08/22 11:45:11;;;;;;;6.80;4.20;;;;;;;31.82;45.60;98457.75;5084665;28;20084;-72
2023/08/22 11:47:44;;;;;;;5.93;4.47;;;;;;;31.99;45.88;98462.78;5069240;28;20036;-71
2023/08/22 11:50:15;;;;;;;6.95;4.43;;;;;;;31.53;46.06;98455.75;5082591;28;20064;-71
2023/08/22 11:52:41;;;;;;;8.85;4.45;;;;;;;31.59;46.53;98465.38;5075489;28;20036;-72
2023/08/22 11:55:08;;;;;;;6.95;4.32;;;;;;;31.86;45.91;98447.44;5075430;28;20111;-72
2023/08/22 11:57:43;;;;;;;4.95;4.10;;;;;;;32.18;44.83;98443.13;5058913;28;20032;-71
2023/08/22 12:00:15;;;;;;;;;;;;;;;32.20;45.74;98446.31;5048180;28;20037;-71
2023/08/22 12:02:50;;;;;;;7.28;4.18;;;;;;;32.25;45.73;98437.63;5065747;28;20393;-72
2023/08/22 12:05:31;;;;;;;6.80;4.45;;;;;;;32.14;45.37;98447.81;5053281;28;20072;-72
2023/08/22 12:07:58;;;;;;;6.13;4.05;;;;;;;31.80;45.53;98446.19;5066857;28;20049;-72
2023/08/22 12:10:23;;;;;;;9.77;4.85;;;;;;;31.75;45.65;98435.34;5064691;28;20024;-71
2023/08/22 12:12:49;;;;;;;7.60;4.53;;;;;;;32.06;45.14;98435.81;5058350;28;20521;-72
2023/08/22 12:15:14;;;;;;;4.95;4.40;;;;;;;32.08;44.92;98438.22;5059534;28;20055;-73
2023/08/22 12:17:39;;;;;;;8.23;4.28;;;;;;;32.16;44.49;98428.72;5072255;28;20033;-72
2023/08/22 12:20:05;;;;;;;5.63;4.25;;;;;;;32.22;45.28;98432.81;5061247;28;20438;-72
2023/08/22 12:22:31;;;;;;;8.13;4.72;;;;;;;31.98;44.89;98436.91;5065018;28;20037;-72
2023/08/22 12:24:56;;;;;;;5.32;4.60;;;;;;;32.18;44.75;98437.53;5062225;28;20535;-72
2023/08/22 12:27:22;;;;;;;6.63;4.53;;;;;;;32.47;44.18;98433.88;5066280;28;20519;-71
2023/08/22 12:29:47;;;;;;;5.43;4.20;;;;;;;32.89;45.53;98435.47;5064600;28;20039;-72
2023/08/22 12:32:12;;;;;;;5.82;4.22;;;;;;;32.78;44.48;98434.59;5068034;28;20043;-72
2023/08/22 12:34:38;;;;;;;7.28;4.40;;;;;;;32.28;43.58;98433.28;5064150;28;20029;-72
2023/08/22 12:37:03;;;;;;;6.43;4.20;;;;;;;32.46;43.10;98426.69;5053273;28;20123;-72
2023/08/22 12:39:29;;;;;;;6.30;4.32;;;;;;;32.73;42.43;98447.72;5051571;28;20055;-72
2023/08/22 12:41:54;;;;;;;6.05;4.30;;;;;;;33.01;41.62;98418.44;5064884;28;20064;-71
2023/08/22 12:44:20;;;;;;;3.72;3.40;;;;;;;33.27;41.41;98426.66;5063967;28;20048;-72
2023/08/22 12:46:45;;;;;;;6.15;3.90;;;;;;;33.36;41.16;98424.31;5041058;28;20230;-72
2023/08/22 12:49:10;;;;;;;8.57;4.40;;;;;;;33.78;40.95;98424.59;5071363;28;20054;-71
2023/08/22 12:51:36;;;;;;;4.65;4.25;;;;;;;34.09;41.65;98423.16;5054431;28;20563;-72
2023/08/22 12:54:02;;;;;;;5.32;4.50;;;;;;;34.30;41.33;98422.41;5063439;28;20020;-72
2023/08/22 12:56:27;;;;;;;8.65;4.30;;;;;;;34.57;39.88;98409.69;5066378;28;20060;-72
2023/08/22 12:58:54;;;;;;;6.00;4.72;;;;;;;34.84;38.96;98419.34;5051212;28;20029;-72
2023/08/22 13:01:19;;;;;;;7.78;4.20;;;;;;;34.55;39.31;98420.50;5039294;28;20138;-73
2023/08/22 13:03:45;;;;;;;7.35;4.50;;;;;;;34.75;40.49;98411.31;5059428;28;20507;-72
2023/08/22 13:06:10;;;;;;;4.70;4.15;;;;;;;35.08;38.75;98389.75;5070300;28;20047;-73
2023/08/22 13:08:36;;;;;;;13.05;4.63;;;;;;;35.56;37.31;98406.91;5070926;28;20024;-72
2023/08/22 13:11:01;;;;;;;9.23;4.63;;;;;;;35.91;37.37;98398.38;5066559;28;20040;-72
2023/08/22 13:13:27;;;;;;;6.45;4.18;;;;;;;35.81;38.03;98410.41;5051030;28;20467;-73
2023/08/22 13:15:52;;;;;;;4.65;4.03;;;;;;;34.47;39.39;98413.28;5064094;28;20037;-72
2023/08/22 13:18:18;;;;;;;8.43;4.20;;;;;;;34.59;40.07;98410.09;5061794;28;20035;-72
2023/08/22 13:20:43;;;;;;;4.57;3.80;;;;;;;35.22;38.52;98401.72;5054297;28;20087;-72
2023/08/22 13:23:08;;;;;;;5.85;4.30;;;;;;;36.21;37.89;98395.03;5051651;28;20029;-72
2023/08/22 13:25:34;;;;;;;7.65;4.65;;;;;;;36.76;36.26;98386.69;5051568;28;20048;-73
2023/08/22 13:27:59;;;;;;;5.78;4.40;;;;;;;37.44;35.21;98388.50;5051944;28;20060;-73
2023/08/22 13:30:24;;;;;;;7.13;4.70;;;;;;;37.60;35.17;98377.47;5050568;28;20037;-73
2023/08/22 13:32:50;;;;;;;7.35;4.60;;;;;;;37.56;34.30;98385.16;5050477;28;20434;-72
2023/08/22 13:35:16;;;;;;;6.45;4.25;;;;;;;37.72;34.16;98388.16;5066847;28;20082;-72
2023/08/22 13:37:42;;;;;;;6.75;4.78;;;;;;;37.72;32.53;98388.16;5059959;28;20024;-73
2023/08/22 13:40:08;;;;;;;6.28;4.40;;;;;;;37.65;33.55;98371.38;5046897;28;20036;-73
2023/08/22 13:42:34;;;;;;;6.05;4.35;;;;;;;37.81;32.82;98373.63;5050382;28;20162;-73
2023/08/22 13:44:59;;;;;;;5.15;4.20;;;;;;;37.96;32.71;98369.41;5033617;28;20063;-73
2023/08/22 13:47:24;;;;;;;6.35;4.47;;;;;;;37.84;33.01;98369.97;5051319;28;20029;-73
2023/08/22 13:49:51;;;;;;;9.05;4.72;;;;;;;36.62;34.29;98382.75;5050523;28;20048;-72
2023/08/22 13:52:16;;;;;;;5.75;4.00;;;;;;;36.97;34.48;98389.34;5050171;28;20052;-73
2023/08/22 13:54:42;;;;;;;4.78;3.78;;;;;;;36.70;35.33;98378.69;5063216;28;20029;-73
2023/08/22 13:57:07;;;;;;;5.57;3.92;;;;;;;35.83;36.35;98368.75;5061131;28;20479;-73
2023/08/22 13:59:34;;;;;;;4.82;3.88;;;;;;;35.56;36.67;98364.84;5058018;28;20123;-73
2023/08/22 14:01:59;;;;;;;5.93;4.22;;;;;;;35.01;37.49;98389.75;5060411;28;20036;-72